Terminal Aerodrome Forecast
Issued by NWS

Home | Current Version | Previous Version | Text Only | Print | Product List | Glossary On
Versions: 1 2 3 4 5 6 7 8 9 10 11 12 13 14 15 16 17 18 19 20 21 22 23 24 25 26 27 28 29 30 31 32
139
FTUS45 KGJT 211731
TAFDRO
TAF
KDRO 211731Z 2118/2218 15006KT P6SM SCT006 BKN040
     FM212000 16007KT P6SM VCSH SCT021 OVC035
     FM220300 VRB04KT P6SM VCSH SCT022 BKN025
     FM220600 VRB03KT P6SM SCT021 OVC025
     FM221200 24004KT P6SM SCT027 BKN030=

USA.gov is the U.S. government's official web portal to all federal, state and local government web resources and services.